Sunday, February 17, 2019, 3:04 PM EST
Back to Local

KBGR, Bangor Int'l Airport

Location: Bangor, ME, United States Lat: 44.8
Local Time: 3:04 PM EST (20:04 GMT) Lon: -68.817
Time Zone: US/Eastern Elev: 193 ft

Show me the last for .
Show Decoded

2019-02-17 13:53 METAR KBGR 171853Z 34013KT 10SM FEW250 M03/M17 A3005 RMK AO2 SLP178 T10331172 =
2019-02-17 12:53 METAR KBGR 171753Z 34012KT 10SM FEW250 M04/M18 A3006 RMK AO2 SLP182 4/007
                 T10441178 11039 21106 58016 =
2019-02-17 11:53 METAR KBGR 171653Z 34013KT 10SM FEW250 M05/M16 A3008 RMK AO2 SLP189 T10501161 =
2019-02-17 10:53 METAR KBGR 171553Z 32007KT 10SM FEW250 M07/M16 A3008 RMK AO2 SLP191 T10671161 =
2019-02-17 09:53 METAR KBGR 171453Z 32011KT 10SM CLR M08/M16 A3010 RMK AO2 SLP198 T10781156 51022
                 =
2019-02-17 08:53 METAR KBGR 171353Z 32011KT 10SM CLR M09/M17 A3009 RMK AO2 SLP193 T10891167 =
2019-02-17 07:53 METAR KBGR 171253Z 31011KT 10SM CLR M09/M17 A3007 RMK AO2 SLP187 T10941167 =
2019-02-17 06:53 METAR KBGR 171153Z 32014G18KT 10SM FEW150 M10/M16 A3004 RMK AO2 SLP175 4/007
                 T11001161 11067 21100 53019 =
2019-02-17 05:53 METAR KBGR 171053Z 25004KT 10SM FEW150 M09/M15 A3001 RMK AO2 SLP168 T10941150 =
2019-02-17 04:53 METAR KBGR 170953Z 30010KT 10SM SCT150 M08/M14 A3000 RMK AO2 SLP162 T10831144 =
2019-02-17 03:53 METAR KBGR 170853Z 31006KT 10SM BKN150 M08/M14 A2998 RMK AO2 SLP155 T10831139
                 51020 =
2019-02-17 02:53 METAR KBGR 170753Z 31005KT 10SM SCT150 M08/M13 A2997 RMK AO2 SLP151 T10831133 =
2019-02-17 01:53 METAR KBGR 170653Z 30006KT 10SM FEW180 M07/M13 A2995 RMK AO2 SLP145 T10721133 =
2019-02-17 00:53 METAR KBGR 170553Z 31012G21KT 10SM CLR M07/M13 A2992 RMK AO2 SLP135 4/007
                 T10721133 11017 21078 51015 =
2019-02-16 23:53 METAR KBGR 170453Z 32014G24KT 10SM CLR M07/M13 A2992 RMK AO2 SLP133 T10671133
                 400611067 =
2019-02-16 22:53 METAR KBGR 170353Z 31010KT 10SM CLR M06/M12 A2989 RMK AO2 SLP125 T10561122 =
2019-02-16 21:53 METAR KBGR 170253Z 31013G21KT 10SM CLR M05/M12 A2988 RMK AO2 SLP120 T10501122
                 51022 =
2019-02-16 20:53 METAR KBGR 170153Z 33019KT 10SM SCT035 M04/M11 A2987 RMK AO2 PK WND 32028/0120
                 SLP117 T10441106 =
2019-02-16 19:53 METAR KBGR 170053Z 29009KT 10SM OVC036 M02/M10 A2983 RMK AO2 SLP106 T10221100 =
2019-02-16 18:53 METAR KBGR 162353Z 30009KT 10SM FEW044 M02/M09 A2981 RMK AO2 SLP098 4/007
                 T10171094 10017 21017 53033 =
2019-02-16 17:53 METAR KBGR 162253Z 30010KT 10SM SCT044 M01/M09 A2978 RMK AO2 SLP087 T10061089 =
2019-02-16 16:53 METAR KBGR 162153Z 29009G16KT 10SM BKN048 01/M08 A2974 RMK AO2 SLP071 T00061083
                 =
2019-02-16 15:53 METAR KBGR 162053Z 30009KT 10SM BKN045 01/M08 A2971 RMK AO2 SLP063 T00111078
                 53013 =

Support USWX by starting your Amazon purchase here.